Terminal Aerodrome Forecast
Issued by NWS Quad Cities IA IL

Home | Current Version | Previous Version | Text Only | Print | Product List | Glossary On
Versions: 1 2 3 4 5 6 7 8 9 10 11 12 13 14 15 16 17 18 19 20 21 22 23 24 25
045
FTUS43 KDVN 301606 AAB
TAFMLI
TAF AMD
KMLI 301606Z 3016/3112 24008KT P6SM VCSH BKN100
     FM301800 20006KT P6SM SCT060
     FM310200 12003KT P6SM FEW250=

USA.gov is the U.S. government's official web portal to all federal, state and local government web resources and services.